• Join FlightAware (Why Join?)
  • Login
  • US Flag 
05:29AM EDT


 

Airport Tracker/Info


-or-


 

Live Flight TrackerFlight Track Log ✈ SWA3853 ✈ 02-May-2013 ✈ KECP - KBNA

Flight Track Log - Related Links

Times and Time Zones

All times are in EDT time to prevent confusion due to time zone crossing. See the SWA3853 flight status page for this flight to view local times or setup timezone preferences in your user account.

Time Position Orientation Groundspeed Altitude Reporting Facility
EDT Latitude Longitude Course Direction KTS MPH feet Rate Location/Type
11:00AM 30.5153 -85.8006 353° North 296 341 9,900  Level Jacksonville Center
11:01AM 30.6025 -85.8200 349° North 301 346 12,800 2,520 Climbing Jacksonville Center
11:02AM 30.7008 -85.8039 North 331 381 15,000 1,080 Climbing Jacksonville Center
11:03AM 30.7644 -85.8541 353° North  Level Estimated
11:03AM 30.7994 -85.7897 North 338 389 15,000  Level Jacksonville Center
11:04AM 30.8659 -85.8688 353° North  Level Estimated
11:04AM 30.8997 -85.7808 North 351 404 15,600  Level Jacksonville Center
11:05AM 30.9674 -85.8835 353° North  Level Estimated
11:05AM 31.0025 -85.7647 North 356 410 18,800  Level Jacksonville Center
11:06AM 31.0689 -85.8983 353° North  Level Estimated
11:06AM 31.1175 -85.7561 North 362 417 22,100  Level Jacksonville Center
11:09AM 31.3286 -85.8378 342° North 425 489 27,100 2,220 Climbing Atlanta Center
11:10AM 31.4406 -85.8936 337° Northwest 425 489 29,000 1,860 Climbing Atlanta Center
11:11AM 31.5522 -85.9542 335° Northwest 436 502 30,900 1,980 Climbing Atlanta Center
11:12AM 31.6661 -86.0178 335° Northwest 442 509 33,000 1,500 Climbing Atlanta Center
11:13AM 31.7819 -86.0789 336° Northwest 447 514 34,000 840 Climbing Atlanta Center
11:14AM 31.8936 -86.1400 335° Northwest 447 514 34,700 1,200 Climbing Atlanta Center
11:15AM 32.0094 -86.2064 334° Northwest 447 514 36,500 1,140 Climbing Atlanta Center
11:16AM 32.1272 -86.2706 335° Northwest 447 514 37,000 240 Climbing Atlanta Center
11:17AM 32.2597 -86.3231 341° North 453 521 37,000  Level Atlanta Center
11:18AM 32.3828 -86.3311 357° North 448 516 37,000  Level Atlanta Center
11:19AM 32.5142 -86.3394 357° North 453 521 37,000 900 Level Atlanta Center
11:20AM 32.6392 -86.3453 358° North 459 528 38,800 960 Climbing Atlanta Center
11:21AM 32.7581 -86.3508 358° North 441 507 39,000 60 Climbing Atlanta Center
11:22AM 32.8792 -86.3564 358° North 435 501 39,000  Level Atlanta Center
11:23AM 33.0000 -86.3622 358° North 430 495 39,000  Level Atlanta Center
11:24AM 33.1167 -86.3750 355° North 430 495 39,000  Level Atlanta Center
11:25AM 33.2397 -86.3758 360° North 425 489 39,000  Level Atlanta Center
11:26AM 33.3567 -86.3817 358° North 420 483 39,000  Level Atlanta Center
11:27AM 33.4753 -86.3947 355° North 420 483 39,000  Level Atlanta Center
11:28AM 33.5714 -86.4000 357° North 420 483 39,000 -480 Level Atlanta Center
11:29AM 33.6964 -86.4033 359° North 414 476 38,100 -900 Descending Atlanta Center
11:30AM 33.8153 -86.4117 357° North 420 483 37,200 -600 Descending Atlanta Center
11:31AM 33.9361 -86.4175 358° North 425 489 37,000 -240 Descending Atlanta Center
11:32AM 34.0614 -86.4258 357° North 425 489 36,800 -600 Descending Atlanta Center
11:33AM 34.1842 -86.4319 358° North 430 495 35,900 -900 Descending Atlanta Center
11:34AM 34.3072 -86.4403 357° North 440 506 35,000 -660 Descending Atlanta Center
11:35AM 34.4281 -86.4464 358° North 440 506 34,600 -900 Descending Atlanta Center
11:36AM 34.5617 -86.4553 357° North 440 506 33,300 -1,080 Descending Atlanta Center
11:39AM 34.9408 -86.3572 12° North 413 475 29,900 -1,200 Descending Memphis Center
11:40AM 35.0342 -86.2792 34° Northeast 419 482 27,900 -2,040 Descending Memphis Center
11:41AM 35.1256 -86.2011 35° Northeast 399 459 25,900 -1,980 Descending Memphis Center
11:42AM 35.2147 -86.1281 34° Northeast 399 459 24,000 -1,920 Descending Memphis Center
11:43AM 35.3000 -86.0575 34° Northeast 399 459 22,100 -1,920 Descending Memphis Center
11:44AM 35.3850 -85.9869 34° Northeast 399 459 20,300 -1,620 Descending Memphis Center
11:45AM 35.4753 -85.9414 22° Northeast 399 459 18,900 -1,380 Descending Memphis Center
11:46AM 35.5689 -85.9364 North 399 459 17,600 -1,860 Descending Memphis Center
11:47AM 35.6494 -86.0369 315° West 338 389 15,200 -2,100 Descending Memphis Center
11:48AM 35.7153 -86.1306 311° West 348 400 13,400 -1,800 Descending Memphis Center
11:49AM 35.7808 -86.2167 313° West 361 415 11,600 -1,740 Descending Memphis Center
11:50AM 35.8442 -86.3033 312° West 341 392 10,000 -1,380 Descending Memphis Center
11:51AM 35.8964 -86.3697 314° West 327 376 8,900 -1,320 Descending Memphis Center
11:52AM 35.9531 -86.4467 312° West 310 357 7,400 -1,020 Descending Memphis Center
11:53AM 36.0072 -86.5158 314° West 292 336 6,900 -240 Descending Memphis Center
11:54AM 36.0506 -86.5703 315° West 248 285 7,000 -660 Climbing Memphis Center
11:55AM 36.1108 -86.5597 North 188 216 5,600 -1,800 Descending Memphis Center
11:56AM 36.1708 -86.5467 10° North 208 239 3,500 -1,860 Descending Memphis Center
11:57AM 36.1917 -86.6100 292° West 179 206 1,900 -1,140 Descending Memphis Center
11:58AM 36.1636 -86.6497 229° Southwest 139 160 1,300 -660 Descending Memphis Center
11:59AM 36.1347 -86.6589 194° South 125 144 600 -720 Descending Memphis Center
12:03PM 36.1245 -86.6782 237° Southwest  Level Estimated
12:10PM 36.1245 -86.6782 302° West  Level Estimated
12:11PM 36.1245 -86.6782 302° West  Level Estimated
12:12PM 36.1245 -86.6782 302° West  Level Estimated